sensor_id;sensor_type;location;lat;lon;timestamp;P1;durP1;ratioP1;P2;durP2;ratioP2
15340;SDS011;7770;52.158;5.372;2023-08-06T00:00:32;25.37;;;22.67;;
15340;SDS011;7770;52.158;5.372;2023-08-06T00:03:18;22.63;;;20.53;;
15340;SDS011;7770;52.158;5.372;2023-08-06T00:06:04;23.53;;;21.13;;
15340;SDS011;7770;52.158;5.372;2023-08-06T00:08:51;26.83;;;23.87;;
15340;SDS011;7770;52.158;5.372;2023-08-06T00:11:37;24.93;;;22.43;;
15340;SDS011;7770;52.158;5.372;2023-08-06T00:14:23;25.10;;;22.47;;
15340;SDS011;7770;52.158;5.372;2023-08-06T00:17:09;24.03;;;21.70;;
15340;SDS011;7770;52.158;5.372;2023-08-06T00:19:55;24.00;;;21.70;;
15340;SDS011;7770;52.158;5.372;2023-08-06T00:22:41;23.60;;;21.40;;
15340;SDS011;7770;52.158;5.372;2023-08-06T00:25:27;23.00;;;20.70;;
15340;SDS011;7770;52.158;5.372;2023-08-06T00:28:13;23.40;;;21.07;;
15340;SDS011;7770;52.158;5.372;2023-08-06T00:30:59;24.13;;;21.63;;
15340;SDS011;7770;52.158;5.372;2023-08-06T00:33:45;23.00;;;20.83;;
15340;SDS011;7770;52.158;5.372;2023-08-06T00:36:31;23.50;;;21.20;;
15340;SDS011;7770;52.158;5.372;2023-08-06T00:39:17;23.30;;;20.83;;
15340;SDS011;7770;52.158;5.372;2023-08-06T00:42:03;23.10;;;20.90;;
15340;SDS011;7770;52.158;5.372;2023-08-06T00:44:49;22.20;;;19.90;;
15340;SDS011;7770;52.158;5.372;2023-08-06T00:47:35;23.80;;;21.40;;
15340;SDS011;7770;52.158;5.372;2023-08-06T00:50:22;22.30;;;20.13;;
15340;SDS011;7770;52.158;5.372;2023-08-06T00:53:08;22.07;;;20.03;;
15340;SDS011;7770;52.158;5.372;2023-08-06T00:55:54;21.37;;;19.23;;
15340;SDS011;7770;52.158;5.372;2023-08-06T00:58:40;22.50;;;19.23;;
15340;SDS011;7770;52.158;5.372;2023-08-06T01:01:27;21.80;;;19.67;;
15340;SDS011;7770;52.158;5.372;2023-08-06T01:04:13;22.30;;;20.17;;
15340;SDS011;7770;52.158;5.372;2023-08-06T01:13:42;23.07;;;20.87;;
15340;SDS011;7770;52.158;5.372;2023-08-06T01:16:34;25.07;;;22.37;;
15340;SDS011;7770;52.158;5.372;2023-08-06T01:19:22;23.60;;;21.40;;
15340;SDS011;7770;52.158;5.372;2023-08-06T01:22:08;23.90;;;21.47;;
15340;SDS011;7770;52.158;5.372;2023-08-06T01:24:54;25.30;;;22.80;;
15340;SDS011;7770;52.158;5.372;2023-08-06T01:27:44;24.47;;;21.50;;
15340;SDS011;7770;52.158;5.372;2023-08-06T01:30:33;23.27;;;21.17;;
15340;SDS011;7770;52.158;5.372;2023-08-06T01:33:26;25.67;;;23.17;;
15340;SDS011;7770;52.158;5.372;2023-08-06T01:36:15;25.70;;;23.30;;
15340;SDS011;7770;52.158;5.372;2023-08-06T01:39:03;26.57;;;23.73;;
15340;SDS011;7770;52.158;5.372;2023-08-06T01:41:50;27.13;;;23.97;;
15340;SDS011;7770;52.158;5.372;2023-08-06T01:44:36;26.20;;;23.50;;
15340;SDS011;7770;52.158;5.372;2023-08-06T01:47:22;26.57;;;23.97;;
15340;SDS011;7770;52.158;5.372;2023-08-06T01:50:08;27.97;;;25.17;;
15340;SDS011;7770;52.158;5.372;2023-08-06T01:52:54;27.67;;;24.90;;
15340;SDS011;7770;52.158;5.372;2023-08-06T01:55:40;28.10;;;25.33;;
15340;SDS011;7770;52.158;5.372;2023-08-06T01:58:26;29.33;;;26.43;;
15340;SDS011;7770;52.158;5.372;2023-08-06T02:01:12;30.73;;;27.47;;
15340;SDS011;7770;52.158;5.372;2023-08-06T02:03:58;31.17;;;28.10;;
15340;SDS011;7770;52.158;5.372;2023-08-06T02:06:44;32.93;;;29.53;;
15340;SDS011;7770;52.158;5.372;2023-08-06T02:09:30;33.00;;;29.70;;
15340;SDS011;7770;52.158;5.372;2023-08-06T02:12:16;32.53;;;29.23;;
15340;SDS011;7770;52.158;5.372;2023-08-06T02:15:03;32.20;;;28.90;;
15340;SDS011;7770;52.158;5.372;2023-08-06T02:17:49;32.03;;;28.73;;
15340;SDS011;7770;52.158;5.372;2023-08-06T02:20:35;32.53;;;29.33;;
15340;SDS011;7770;52.158;5.372;2023-08-06T02:23:22;31.47;;;28.23;;
15340;SDS011;7770;52.158;5.372;2023-08-06T02:26:07;31.67;;;28.33;;
15340;SDS011;7770;52.158;5.372;2023-08-06T02:28:53;32.43;;;29.03;;
15340;SDS011;7770;52.158;5.372;2023-08-06T02:31:39;33.87;;;30.47;;
15340;SDS011;7770;52.158;5.372;2023-08-06T02:34:26;33.93;;;30.60;;
15340;SDS011;7770;52.158;5.372;2023-08-06T02:37:12;34.27;;;30.63;;
15340;SDS011;7770;52.158;5.372;2023-08-06T02:39:58;35.67;;;32.07;;
15340;SDS011;7770;52.158;5.372;2023-08-06T02:42:43;36.97;;;33.17;;
15340;SDS011;7770;52.158;5.372;2023-08-06T02:45:29;36.43;;;32.53;;
15340;SDS011;7770;52.158;5.372;2023-08-06T02:48:15;34.37;;;30.77;;
15340;SDS011;7770;52.158;5.372;2023-08-06T02:51:03;29.10;;;26.10;;
15340;SDS011;7770;52.158;5.372;2023-08-06T02:53:49;31.17;;;27.97;;
15340;SDS011;7770;52.158;5.372;2023-08-06T02:56:35;30.30;;;27.03;;
15340;SDS011;7770;52.158;5.372;2023-08-06T02:59:21;33.73;;;29.63;;
15340;SDS011;7770;52.158;5.372;2023-08-06T03:02:07;31.57;;;28.37;;
15340;SDS011;7770;52.158;5.372;2023-08-06T03:04:53;30.67;;;27.57;;
15340;SDS011;7770;52.158;5.372;2023-08-06T03:07:39;29.87;;;26.90;;
15340;SDS011;7770;52.158;5.372;2023-08-06T03:10:25;30.60;;;27.43;;
15340;SDS011;7770;52.158;5.372;2023-08-06T03:13:11;29.43;;;26.60;;
15340;SDS011;7770;52.158;5.372;2023-08-06T03:15:58;30.33;;;27.10;;
15340;SDS011;7770;52.158;5.372;2023-08-06T03:18:45;29.70;;;25.77;;
15340;SDS011;7770;52.158;5.372;2023-08-06T03:21:31;28.87;;;25.47;;
15340;SDS011;7770;52.158;5.372;2023-08-06T03:24:17;27.20;;;24.47;;
15340;SDS011;7770;52.158;5.372;2023-08-06T03:27:03;27.27;;;23.80;;
15340;SDS011;7770;52.158;5.372;2023-08-06T03:29:49;25.20;;;22.70;;
15340;SDS011;7770;52.158;5.372;2023-08-06T03:32:35;25.67;;;23.17;;
15340;SDS011;7770;52.158;5.372;2023-08-06T03:35:21;26.20;;;23.60;;
15340;SDS011;7770;52.158;5.372;2023-08-06T03:38:07;27.57;;;24.77;;
15340;SDS011;7770;52.158;5.372;2023-08-06T03:40:53;29.07;;;26.07;;
15340;SDS011;7770;52.158;5.372;2023-08-06T03:43:40;26.67;;;23.97;;
15340;SDS011;7770;52.158;5.372;2023-08-06T03:46:26;25.57;;;22.87;;
15340;SDS011;7770;52.158;5.372;2023-08-06T03:49:12;24.30;;;22.00;;
15340;SDS011;7770;52.158;5.372;2023-08-06T03:51:58;24.50;;;22.10;;
15340;SDS011;7770;52.158;5.372;2023-08-06T03:54:44;24.27;;;21.83;;
15340;SDS011;7770;52.158;5.372;2023-08-06T03:57:30;24.60;;;22.10;;
15340;SDS011;7770;52.158;5.372;2023-08-06T04:00:16;23.90;;;21.50;;
15340;SDS011;7770;52.158;5.372;2023-08-06T04:03:02;24.90;;;22.30;;
15340;SDS011;7770;52.158;5.372;2023-08-06T04:05:48;25.03;;;22.53;;
15340;SDS011;7770;52.158;5.372;2023-08-06T04:08:34;24.57;;;22.07;;
15340;SDS011;7770;52.158;5.372;2023-08-06T04:11:20;26.03;;;23.23;;
15340;SDS011;7770;52.158;5.372;2023-08-06T04:14:07;26.60;;;23.90;;
15340;SDS011;7770;52.158;5.372;2023-08-06T04:16:53;27.40;;;24.27;;
15340;SDS011;7770;52.158;5.372;2023-08-06T04:19:39;27.30;;;24.50;;
15340;SDS011;7770;52.158;5.372;2023-08-06T04:22:25;30.10;;;26.93;;
15340;SDS011;7770;52.158;5.372;2023-08-06T04:25:12;29.40;;;26.50;;
15340;SDS011;7770;52.158;5.372;2023-08-06T04:27:58;30.87;;;27.73;;
15340;SDS011;7770;52.158;5.372;2023-08-06T04:30:44;30.70;;;27.70;;
15340;SDS011;7770;52.158;5.372;2023-08-06T04:33:30;31.53;;;28.23;;
15340;SDS011;7770;52.158;5.372;2023-08-06T04:36:16;33.23;;;29.83;;
15340;SDS011;7770;52.158;5.372;2023-08-06T04:39:02;34.67;;;31.03;;
15340;SDS011;7770;52.158;5.372;2023-08-06T04:41:48;36.57;;;32.67;;
15340;SDS011;7770;52.158;5.372;2023-08-06T04:44:34;34.73;;;31.10;;
15340;SDS011;7770;52.158;5.372;2023-08-06T04:47:20;40.13;;;35.80;;
15340;SDS011;7770;52.158;5.372;2023-08-06T04:50:06;40.60;;;36.17;;
15340;SDS011;7770;52.158;5.372;2023-08-06T04:52:52;40.67;;;36.33;;
15340;SDS011;7770;52.158;5.372;2023-08-06T04:55:38;41.57;;;37.13;;
15340;SDS011;7770;52.158;5.372;2023-08-06T04:58:25;41.43;;;36.57;;
15340;SDS011;7770;52.158;5.372;2023-08-06T05:01:11;41.60;;;37.07;;
15340;SDS011;7770;52.158;5.372;2023-08-06T05:03:57;42.77;;;38.17;;
15340;SDS011;7770;52.158;5.372;2023-08-06T05:06:43;40.53;;;36.07;;
15340;SDS011;7770;52.158;5.372;2023-08-06T05:09:29;42.60;;;38.20;;
15340;SDS011;7770;52.158;5.372;2023-08-06T05:12:15;43.00;;;37.57;;
15340;SDS011;7770;52.158;5.372;2023-08-06T05:15:01;42.20;;;37.63;;
15340;SDS011;7770;52.158;5.372;2023-08-06T05:17:48;40.07;;;35.80;;
15340;SDS011;7770;52.158;5.372;2023-08-06T05:20:37;40.67;;;36.27;;
15340;SDS011;7770;52.158;5.372;2023-08-06T05:23:27;40.60;;;36.33;;
15340;SDS011;7770;52.158;5.372;2023-08-06T05:26:13;39.60;;;35.20;;
15340;SDS011;7770;52.158;5.372;2023-08-06T05:29:03;40.77;;;36.53;;
15340;SDS011;7770;52.158;5.372;2023-08-06T05:31:49;40.37;;;36.23;;
15340;SDS011;7770;52.158;5.372;2023-08-06T05:34:35;39.70;;;35.43;;
15340;SDS011;7770;52.158;5.372;2023-08-06T05:37:21;40.37;;;36.10;;
15340;SDS011;7770;52.158;5.372;2023-08-06T05:40:07;38.83;;;34.83;;
15340;SDS011;7770;52.158;5.372;2023-08-06T05:42:54;44.23;;;38.27;;
15340;SDS011;7770;52.158;5.372;2023-08-06T05:45:44;41.50;;;36.30;;
15340;SDS011;7770;52.158;5.372;2023-08-06T05:48:31;38.77;;;34.77;;
15340;SDS011;7770;52.158;5.372;2023-08-06T05:51:17;39.13;;;35.13;;
15340;SDS011;7770;52.158;5.372;2023-08-06T05:54:04;39.77;;;35.63;;
15340;SDS011;7770;52.158;5.372;2023-08-06T05:56:50;39.93;;;35.73;;
15340;SDS011;7770;52.158;5.372;2023-08-06T05:59:36;38.83;;;34.90;;
15340;SDS011;7770;52.158;5.372;2023-08-06T06:02:22;39.87;;;35.47;;
15340;SDS011;7770;52.158;5.372;2023-08-06T06:05:08;38.37;;;34.30;;
15340;SDS011;7770;52.158;5.372;2023-08-06T06:07:54;40.87;;;36.57;;
15340;SDS011;7770;52.158;5.372;2023-08-06T06:10:40;40.33;;;36.13;;
15340;SDS011;7770;52.158;5.372;2023-08-06T06:13:26;40.13;;;35.97;;
15340;SDS011;7770;52.158;5.372;2023-08-06T06:16:12;40.57;;;36.30;;
15340;SDS011;7770;52.158;5.372;2023-08-06T06:18:58;40.30;;;36.27;;
15340;SDS011;7770;52.158;5.372;2023-08-06T06:21:44;39.40;;;35.40;;
15340;SDS011;7770;52.158;5.372;2023-08-06T06:24:30;38.07;;;34.27;;
15340;SDS011;7770;52.158;5.372;2023-08-06T06:27:16;37.13;;;33.50;;
15340;SDS011;7770;52.158;5.372;2023-08-06T06:30:02;37.60;;;33.77;;
15340;SDS011;7770;52.158;5.372;2023-08-06T06:32:49;38.67;;;34.60;;
15340;SDS011;7770;52.158;5.372;2023-08-06T06:35:35;39.30;;;35.23;;
15340;SDS011;7770;52.158;5.372;2023-08-06T06:38:22;40.23;;;36.00;;
15340;SDS011;7770;52.158;5.372;2023-08-06T06:41:08;40.53;;;36.43;;
15340;SDS011;7770;52.158;5.372;2023-08-06T06:43:54;40.83;;;36.63;;
15340;SDS011;7770;52.158;5.372;2023-08-06T06:46:40;40.40;;;35.87;;
15340;SDS011;7770;52.158;5.372;2023-08-06T06:49:26;40.53;;;36.73;;
15340;SDS011;7770;52.158;5.372;2023-08-06T06:52:12;41.13;;;37.07;;
15340;SDS011;7770;52.158;5.372;2023-08-06T06:54:59;40.67;;;36.37;;
15340;SDS011;7770;52.158;5.372;2023-08-06T06:57:46;41.40;;;37.20;;
15340;SDS011;7770;52.158;5.372;2023-08-06T07:00:32;39.43;;;35.53;;
15340;SDS011;7770;52.158;5.372;2023-08-06T07:03:19;41.57;;;37.40;;
15340;SDS011;7770;52.158;5.372;2023-08-06T07:06:06;40.83;;;36.60;;
15340;SDS011;7770;52.158;5.372;2023-08-06T07:08:52;38.83;;;34.77;;
15340;SDS011;7770;52.158;5.372;2023-08-06T07:11:38;39.60;;;35.70;;
15340;SDS011;7770;52.158;5.372;2023-08-06T07:14:25;39.97;;;35.90;;
15340;SDS011;7770;52.158;5.372;2023-08-06T07:17:11;41.10;;;37.00;;
15340;SDS011;7770;52.158;5.372;2023-08-06T07:19:57;40.23;;;36.13;;
15340;SDS011;7770;52.158;5.372;2023-08-06T07:22:44;41.17;;;37.07;;
15340;SDS011;7770;52.158;5.372;2023-08-06T07:25:30;40.10;;;35.63;;
15340;SDS011;7770;52.158;5.372;2023-08-06T07:28:16;41.53;;;37.40;;
15340;SDS011;7770;52.158;5.372;2023-08-06T07:31:02;38.33;;;34.50;;
15340;SDS011;7770;52.158;5.372;2023-08-06T07:33:49;37.87;;;34.23;;
15340;SDS011;7770;52.158;5.372;2023-08-06T07:36:35;38.03;;;34.27;;
15340;SDS011;7770;52.158;5.372;2023-08-06T07:39:21;40.00;;;35.93;;
15340;SDS011;7770;52.158;5.372;2023-08-06T07:42:08;25.17;;;22.67;;
15340;SDS011;7770;52.158;5.372;2023-08-06T07:44:56;18.40;;;16.70;;
15340;SDS011;7770;52.158;5.372;2023-08-06T07:47:43;16.27;;;14.63;;
15340;SDS011;7770;52.158;5.372;2023-08-06T07:50:29;15.27;;;13.77;;
15340;SDS011;7770;52.158;5.372;2023-08-06T07:53:15;12.90;;;11.70;;
15340;SDS011;7770;52.158;5.372;2023-08-06T07:56:02;12.00;;;11.00;;
15340;SDS011;7770;52.158;5.372;2023-08-06T07:58:48;9.53;;;8.53;;
15340;SDS011;7770;52.158;5.372;2023-08-06T08:01:34;9.10;;;8.40;;
15340;SDS011;7770;52.158;5.372;2023-08-06T08:04:20;7.20;;;6.60;;
15340;SDS011;7770;52.158;5.372;2023-08-06T08:07:06;7.70;;;7.10;;
15340;SDS011;7770;52.158;5.372;2023-08-06T08:09:52;8.97;;;8.10;;
15340;SDS011;7770;52.158;5.372;2023-08-06T08:12:38;8.70;;;8.00;;
15340;SDS011;7770;52.158;5.372;2023-08-06T08:15:24;6.90;;;6.30;;
15340;SDS011;7770;52.158;5.372;2023-08-06T08:18:13;6.27;;;5.77;;
15340;SDS011;7770;52.158;5.372;2023-08-06T08:20:59;6.83;;;6.23;;
15340;SDS011;7770;52.158;5.372;2023-08-06T08:23:45;6.83;;;6.30;;
15340;SDS011;7770;52.158;5.372;2023-08-06T08:26:31;5.90;;;5.50;;
15340;SDS011;7770;52.158;5.372;2023-08-06T08:29:19;5.70;;;5.30;;
15340;SDS011;7770;52.158;5.372;2023-08-06T08:32:06;6.20;;;5.70;;
15340;SDS011;7770;52.158;5.372;2023-08-06T08:34:52;6.87;;;6.27;;
15340;SDS011;7770;52.158;5.372;2023-08-06T08:37:38;5.63;;;5.10;;
15340;SDS011;7770;52.158;5.372;2023-08-06T08:40:26;5.50;;;5.00;;
15340;SDS011;7770;52.158;5.372;2023-08-06T08:43:17;5.80;;;5.30;;
15340;SDS011;7770;52.158;5.372;2023-08-06T08:46:07;5.70;;;5.20;;
15340;SDS011;7770;52.158;5.372;2023-08-06T08:48:55;5.80;;;5.30;;
15340;SDS011;7770;52.158;5.372;2023-08-06T08:51:42;5.90;;;5.30;;
15340;SDS011;7770;52.158;5.372;2023-08-06T08:54:30;5.67;;;5.27;;
15340;SDS011;7770;52.158;5.372;2023-08-06T08:57:17;6.00;;;5.40;;
15340;SDS011;7770;52.158;5.372;2023-08-06T09:00:04;6.27;;;5.43;;
15340;SDS011;7770;52.158;5.372;2023-08-06T09:02:51;6.03;;;5.53;;
15340;SDS011;7770;52.158;5.372;2023-08-06T09:05:39;5.90;;;5.40;;
15340;SDS011;7770;52.158;5.372;2023-08-06T09:08:32;6.13;;;5.63;;
15340;SDS011;7770;52.158;5.372;2023-08-06T09:11:23;6.60;;;5.90;;
15340;SDS011;7770;52.158;5.372;2023-08-06T09:14:09;6.67;;;6.07;;
15340;SDS011;7770;52.158;5.372;2023-08-06T09:16:56;6.37;;;5.87;;
15340;SDS011;7770;52.158;5.372;2023-08-06T09:19:43;6.40;;;5.80;;
15340;SDS011;7770;52.158;5.372;2023-08-06T09:22:34;7.10;;;6.50;;
15340;SDS011;7770;52.158;5.372;2023-08-06T09:25:23;7.30;;;6.70;;
15340;SDS011;7770;52.158;5.372;2023-08-06T09:28:10;7.57;;;6.87;;
15340;SDS011;7770;52.158;5.372;2023-08-06T09:30:56;7.00;;;6.40;;
15340;SDS011;7770;52.158;5.372;2023-08-06T09:33:46;7.90;;;7.20;;
15340;SDS011;7770;52.158;5.372;2023-08-06T09:36:34;7.90;;;7.20;;
15340;SDS011;7770;52.158;5.372;2023-08-06T09:39:27;8.03;;;7.30;;
15340;SDS011;7770;52.158;5.372;2023-08-06T09:42:15;9.30;;;8.50;;
15340;SDS011;7770;52.158;5.372;2023-08-06T09:45:07;9.63;;;8.63;;
15340;SDS011;7770;52.158;5.372;2023-08-06T09:47:56;9.27;;;8.50;;
15340;SDS011;7770;52.158;5.372;2023-08-06T09:50:43;9.27;;;8.47;;
15340;SDS011;7770;52.158;5.372;2023-08-06T09:53:30;9.30;;;8.50;;
15340;SDS011;7770;52.158;5.372;2023-08-06T09:56:19;10.77;;;9.77;;
15340;SDS011;7770;52.158;5.372;2023-08-06T09:59:06;10.77;;;9.70;;
15340;SDS011;7770;52.158;5.372;2023-08-06T10:01:53;10.67;;;9.37;;
15340;SDS011;7770;52.158;5.372;2023-08-06T10:04:44;10.20;;;9.30;;
15340;SDS011;7770;52.158;5.372;2023-08-06T10:07:31;10.73;;;9.63;;
15340;SDS011;7770;52.158;5.372;2023-08-06T10:10:18;10.50;;;9.40;;
15340;SDS011;7770;52.158;5.372;2023-08-06T10:13:05;10.57;;;9.63;;
15340;SDS011;7770;52.158;5.372;2023-08-06T10:15:53;10.80;;;9.90;;
15340;SDS011;7770;52.158;5.372;2023-08-06T10:18:39;10.67;;;9.67;;
15340;SDS011;7770;52.158;5.372;2023-08-06T10:21:25;9.70;;;8.70;;
15340;SDS011;7770;52.158;5.372;2023-08-06T10:24:13;10.40;;;9.30;;
15340;SDS011;7770;52.158;5.372;2023-08-06T10:27:00;11.87;;;9.73;;
15340;SDS011;7770;52.158;5.372;2023-08-06T10:29:46;10.60;;;9.00;;
15340;SDS011;7770;52.158;5.372;2023-08-06T10:32:47;9.60;;;8.70;;
15340;SDS011;7770;52.158;5.372;2023-08-06T10:38:30;10.80;;;9.17;;
15340;SDS011;7770;52.158;5.372;2023-08-06T10:41:29;8.90;;;8.00;;
15340;SDS011;7770;52.158;5.372;2023-08-06T10:44:16;9.20;;;7.97;;
15340;SDS011;7770;52.158;5.372;2023-08-06T10:50:16;9.93;;;7.93;;
15340;SDS011;7770;52.158;5.372;2023-08-06T10:53:03;8.13;;;7.20;;
15340;SDS011;7770;52.158;5.372;2023-08-06T10:55:51;7.90;;;7.10;;
15340;SDS011;7770;52.158;5.372;2023-08-06T10:58:37;8.50;;;6.73;;
15340;SDS011;7770;52.158;5.372;2023-08-06T11:01:23;9.17;;;6.27;;
15340;SDS011;7770;52.158;5.372;2023-08-06T11:04:10;6.97;;;6.27;;
15340;SDS011;7770;52.158;5.372;2023-08-06T11:07:01;7.23;;;6.00;;
15340;SDS011;7770;52.158;5.372;2023-08-06T11:09:49;6.83;;;5.43;;
15340;SDS011;7770;52.158;5.372;2023-08-06T11:12:36;6.03;;;5.43;;
15340;SDS011;7770;52.158;5.372;2023-08-06T11:15:23;6.50;;;5.80;;
15340;SDS011;7770;52.158;5.372;2023-08-06T11:18:09;6.20;;;5.10;;
15340;SDS011;7770;52.158;5.372;2023-08-06T11:20:55;6.00;;;5.33;;
15340;SDS011;7770;52.158;5.372;2023-08-06T11:23:44;8.93;;;5.93;;
15340;SDS011;7770;52.158;5.372;2023-08-06T11:26:30;7.57;;;5.23;;
15340;SDS011;7770;52.158;5.372;2023-08-06T11:29:16;7.00;;;5.20;;
15340;SDS011;7770;52.158;5.372;2023-08-06T11:32:05;4.97;;;4.50;;
15340;SDS011;7770;52.158;5.372;2023-08-06T11:34:52;6.47;;;5.07;;
15340;SDS011;7770;52.158;5.372;2023-08-06T11:37:43;5.47;;;4.63;;
15340;SDS011;7770;52.158;5.372;2023-08-06T11:40:31;6.50;;;5.03;;
15340;SDS011;7770;52.158;5.372;2023-08-06T11:43:18;5.23;;;4.73;;
15340;SDS011;7770;52.158;5.372;2023-08-06T11:46:07;6.10;;;4.80;;
15340;SDS011;7770;52.158;5.372;2023-08-06T11:48:58;6.23;;;5.23;;
15340;SDS011;7770;52.158;5.372;2023-08-06T11:51:44;6.43;;;5.43;;
15340;SDS011;7770;52.158;5.372;2023-08-06T11:54:31;5.40;;;4.73;;
15340;SDS011;7770;52.158;5.372;2023-08-06T11:57:22;5.90;;;5.13;;
15340;SDS011;7770;52.158;5.372;2023-08-06T12:00:12;8.03;;;4.77;;
15340;SDS011;7770;52.158;5.372;2023-08-06T12:02:59;5.97;;;4.67;;
15340;SDS011;7770;52.158;5.372;2023-08-06T12:05:45;5.77;;;4.30;;
15340;SDS011;7770;52.158;5.372;2023-08-06T12:08:32;7.03;;;5.00;;
15340;SDS011;7770;52.158;5.372;2023-08-06T12:11:20;6.60;;;4.73;;
15340;SDS011;7770;52.158;5.372;2023-08-06T12:14:07;8.70;;;5.57;;
15340;SDS011;7770;52.158;5.372;2023-08-06T12:16:53;6.03;;;5.30;;
15340;SDS011;7770;52.158;5.372;2023-08-06T12:19:39;5.17;;;4.67;;
15340;SDS011;7770;52.158;5.372;2023-08-06T12:22:25;6.13;;;4.20;;
15340;SDS011;7770;52.158;5.372;2023-08-06T12:25:11;5.67;;;4.40;;
15340;SDS011;7770;52.158;5.372;2023-08-06T12:27:58;6.03;;;3.90;;
15340;SDS011;7770;52.158;5.372;2023-08-06T12:30:44;5.67;;;4.13;;
15340;SDS011;7770;52.158;5.372;2023-08-06T12:33:30;7.13;;;4.37;;
15340;SDS011;7770;52.158;5.372;2023-08-06T12:36:17;6.53;;;4.30;;
15340;SDS011;7770;52.158;5.372;2023-08-06T12:39:03;4.57;;;3.90;;
15340;SDS011;7770;52.158;5.372;2023-08-06T12:41:49;6.07;;;4.40;;
15340;SDS011;7770;52.158;5.372;2023-08-06T12:44:35;6.50;;;4.40;;
15340;SDS011;7770;52.158;5.372;2023-08-06T12:47:21;5.93;;;4.30;;
15340;SDS011;7770;52.158;5.372;2023-08-06T12:50:07;6.23;;;4.20;;
15340;SDS011;7770;52.158;5.372;2023-08-06T12:52:54;6.83;;;4.73;;
15340;SDS011;7770;52.158;5.372;2023-08-06T12:55:40;5.47;;;4.30;;
15340;SDS011;7770;52.158;5.372;2023-08-06T12:58:27;6.70;;;4.03;;
15340;SDS011;7770;52.158;5.372;2023-08-06T13:01:13;6.50;;;4.80;;
15340;SDS011;7770;52.158;5.372;2023-08-06T13:03:59;6.33;;;5.10;;
15340;SDS011;7770;52.158;5.372;2023-08-06T13:06:45;5.87;;;4.80;;
15340;SDS011;7770;52.158;5.372;2023-08-06T13:09:32;6.17;;;4.90;;
15340;SDS011;7770;52.158;5.372;2023-08-06T13:12:18;5.80;;;4.57;;
15340;SDS011;7770;52.158;5.372;2023-08-06T13:15:05;6.20;;;4.83;;
15340;SDS011;7770;52.158;5.372;2023-08-06T13:17:52;6.27;;;4.77;;
15340;SDS011;7770;52.158;5.372;2023-08-06T13:20:38;5.43;;;4.93;;
15340;SDS011;7770;52.158;5.372;2023-08-06T13:23:25;6.10;;;5.33;;
15340;SDS011;7770;52.158;5.372;2023-08-06T13:26:11;8.33;;;5.23;;
15340;SDS011;7770;52.158;5.372;2023-08-06T13:28:58;6.87;;;5.40;;
15340;SDS011;7770;52.158;5.372;2023-08-06T13:31:45;5.80;;;5.20;;
15340;SDS011;7770;52.158;5.372;2023-08-06T13:34:31;5.97;;;5.40;;
15340;SDS011;7770;52.158;5.372;2023-08-06T13:37:17;6.03;;;5.33;;
15340;SDS011;7770;52.158;5.372;2023-08-06T13:40:03;7.50;;;6.03;;
15340;SDS011;7770;52.158;5.372;2023-08-06T13:42:49;8.03;;;5.80;;
15340;SDS011;7770;52.158;5.372;2023-08-06T13:45:35;7.77;;;5.87;;
15340;SDS011;7770;52.158;5.372;2023-08-06T13:48:23;6.40;;;5.70;;
15340;SDS011;7770;52.158;5.372;2023-08-06T13:51:09;6.90;;;5.73;;
15340;SDS011;7770;52.158;5.372;2023-08-06T13:53:57;6.83;;;6.03;;
15340;SDS011;7770;52.158;5.372;2023-08-06T13:56:43;6.43;;;5.83;;
15340;SDS011;7770;52.158;5.372;2023-08-06T13:59:28;5.73;;;4.83;;
15340;SDS011;7770;52.158;5.372;2023-08-06T14:02:15;7.93;;;5.40;;
15340;SDS011;7770;52.158;5.372;2023-08-06T14:05:00;6.13;;;5.23;;
15340;SDS011;7770;52.158;5.372;2023-08-06T14:07:46;5.07;;;4.60;;
15340;SDS011;7770;52.158;5.372;2023-08-06T14:10:33;7.40;;;5.50;;
15340;SDS011;7770;52.158;5.372;2023-08-06T14:13:19;5.53;;;4.53;;
15340;SDS011;7770;52.158;5.372;2023-08-06T14:16:06;6.07;;;4.80;;
15340;SDS011;7770;52.158;5.372;2023-08-06T14:18:53;5.07;;;4.60;;
15340;SDS011;7770;52.158;5.372;2023-08-06T14:21:39;7.50;;;5.20;;
15340;SDS011;7770;52.158;5.372;2023-08-06T14:24:25;5.37;;;4.87;;
15340;SDS011;7770;52.158;5.372;2023-08-06T14:27:11;5.60;;;5.10;;
15340;SDS011;7770;52.158;5.372;2023-08-06T14:29:57;5.47;;;4.97;;
15340;SDS011;7770;52.158;5.372;2023-08-06T14:32:43;6.37;;;5.80;;
15340;SDS011;7770;52.158;5.372;2023-08-06T14:35:29;7.30;;;6.03;;
15340;SDS011;7770;52.158;5.372;2023-08-06T14:38:15;8.40;;;5.90;;
15340;SDS011;7770;52.158;5.372;2023-08-06T14:41:01;6.27;;;5.37;;
15340;SDS011;7770;52.158;5.372;2023-08-06T14:43:47;7.00;;;5.93;;
15340;SDS011;7770;52.158;5.372;2023-08-06T14:46:33;6.43;;;5.83;;
15340;SDS011;7770;52.158;5.372;2023-08-06T14:49:19;7.37;;;4.97;;
15340;SDS011;7770;52.158;5.372;2023-08-06T14:52:05;6.30;;;4.60;;
15340;SDS011;7770;52.158;5.372;2023-08-06T14:54:52;6.17;;;4.80;;
15340;SDS011;7770;52.158;5.372;2023-08-06T14:57:40;5.33;;;4.50;;
15340;SDS011;7770;52.158;5.372;2023-08-06T15:00:26;5.60;;;4.03;;
15340;SDS011;7770;52.158;5.372;2023-08-06T15:03:12;5.27;;;4.03;;
15340;SDS011;7770;52.158;5.372;2023-08-06T15:05:58;4.13;;;3.77;;
15340;SDS011;7770;52.158;5.372;2023-08-06T15:08:44;5.17;;;3.30;;
15340;SDS011;7770;52.158;5.372;2023-08-06T15:11:32;5.63;;;3.87;;
15340;SDS011;7770;52.158;5.372;2023-08-06T15:14:18;9.73;;;3.80;;
15340;SDS011;7770;52.158;5.372;2023-08-06T15:17:04;6.83;;;3.07;;
15340;SDS011;7770;52.158;5.372;2023-08-06T15:19:50;5.43;;;3.03;;
15340;SDS011;7770;52.158;5.372;2023-08-06T15:22:36;5.57;;;2.90;;
15340;SDS011;7770;52.158;5.372;2023-08-06T15:25:22;5.80;;;2.70;;
15340;SDS011;7770;52.158;5.372;2023-08-06T15:28:08;5.73;;;2.60;;
15340;SDS011;7770;52.158;5.372;2023-08-06T15:30:54;7.03;;;2.20;;
15340;SDS011;7770;52.158;5.372;2023-08-06T15:33:40;7.23;;;2.93;;
15340;SDS011;7770;52.158;5.372;2023-08-06T15:36:26;5.53;;;2.27;;
15340;SDS011;7770;52.158;5.372;2023-08-06T15:39:12;4.43;;;2.00;;
15340;SDS011;7770;52.158;5.372;2023-08-06T15:41:58;5.30;;;2.20;;
15340;SDS011;7770;52.158;5.372;2023-08-06T15:44:45;7.93;;;2.40;;
15340;SDS011;7770;52.158;5.372;2023-08-06T15:47:31;5.10;;;2.70;;
15340;SDS011;7770;52.158;5.372;2023-08-06T15:50:17;9.27;;;2.20;;
15340;SDS011;7770;52.158;5.372;2023-08-06T15:53:03;11.00;;;7.63;;
15340;SDS011;7770;52.158;5.372;2023-08-06T15:55:50;7.57;;;2.17;;
15340;SDS011;7770;52.158;5.372;2023-08-06T15:58:36;7.20;;;2.33;;
15340;SDS011;7770;52.158;5.372;2023-08-06T16:01:22;8.07;;;2.37;;
15340;SDS011;7770;52.158;5.372;2023-08-06T16:04:08;7.67;;;4.13;;
15340;SDS011;7770;52.158;5.372;2023-08-06T16:06:54;7.57;;;2.07;;
15340;SDS011;7770;52.158;5.372;2023-08-06T16:09:40;6.67;;;2.10;;
15340;SDS011;7770;52.158;5.372;2023-08-06T16:12:27;9.00;;;2.37;;
15340;SDS011;7770;52.158;5.372;2023-08-06T16:15:13;8.13;;;2.30;;
15340;SDS011;7770;52.158;5.372;2023-08-06T16:18:04;6.67;;;2.13;;
15340;SDS011;7770;52.158;5.372;2023-08-06T16:20:51;6.83;;;2.30;;
15340;SDS011;7770;52.158;5.372;2023-08-06T16:23:39;6.43;;;2.30;;
15340;SDS011;7770;52.158;5.372;2023-08-06T16:26:26;6.30;;;2.30;;
15340;SDS011;7770;52.158;5.372;2023-08-06T16:29:12;5.43;;;2.17;;
15340;SDS011;7770;52.158;5.372;2023-08-06T16:31:59;6.73;;;2.10;;
15340;SDS011;7770;52.158;5.372;2023-08-06T16:34:45;7.07;;;2.40;;
15340;SDS011;7770;52.158;5.372;2023-08-06T16:37:31;6.23;;;2.30;;
15340;SDS011;7770;52.158;5.372;2023-08-06T16:40:17;4.27;;;2.90;;
15340;SDS011;7770;52.158;5.372;2023-08-06T16:43:03;4.47;;;2.57;;
15340;SDS011;7770;52.158;5.372;2023-08-06T16:45:53;5.50;;;3.67;;
15340;SDS011;7770;52.158;5.372;2023-08-06T16:48:39;7.90;;;2.30;;
15340;SDS011;7770;52.158;5.372;2023-08-06T16:51:25;7.57;;;2.20;;
15340;SDS011;7770;52.158;5.372;2023-08-06T16:54:11;6.83;;;2.33;;
15340;SDS011;7770;52.158;5.372;2023-08-06T16:56:57;6.33;;;2.50;;